createdAt,value
2023-04-29T00:00:06.798Z,12.00
2023-04-29T00:02:33.730Z,13.63
2023-04-29T00:05:00.766Z,13.77
2023-04-29T00:07:27.534Z,12.33
2023-04-29T00:09:54.108Z,14.83
2023-04-29T00:12:21.291Z,13.00
2023-04-29T00:14:47.665Z,12.30
2023-04-29T00:17:14.131Z,12.50
2023-04-29T00:19:41.295Z,12.33
2023-04-29T00:22:08.116Z,13.50
2023-04-29T00:24:34.622Z,12.13
2023-04-29T00:27:02.509Z,15.37
2023-04-29T00:29:28.948Z,15.13
2023-04-29T00:31:55.661Z,14.60
2023-04-29T00:34:22.319Z,15.87
2023-04-29T00:36:49.836Z,17.37
2023-04-29T00:39:16.285Z,16.33
2023-04-29T00:41:42.720Z,16.43
2023-04-29T00:44:10.244Z,15.03
2023-04-29T00:46:36.851Z,14.90
2023-04-29T00:49:04.209Z,17.73
2023-04-29T00:51:30.965Z,17.17
2023-04-29T00:53:57.388Z,16.50
2023-04-29T00:56:24.542Z,17.17
2023-04-29T00:58:52.477Z,16.97
2023-04-29T01:01:20.166Z,16.07
2023-04-29T01:03:47.314Z,16.77
2023-04-29T01:06:34.168Z,17.93
2023-04-29T01:09:44.713Z,16.90
2023-04-29T01:12:26.272Z,15.90
2023-04-29T01:15:27.718Z,17.20
2023-04-29T01:18:05.345Z,18.47
2023-04-29T01:20:33.395Z,17.17
2023-04-29T01:22:59.812Z,16.30
2023-04-29T01:25:26.391Z,17.13
2023-04-29T01:28:03.963Z,18.30
2023-04-29T01:30:52.946Z,17.43
2023-04-29T01:33:44.712Z,16.63
2023-04-29T01:36:32.879Z,15.17
2023-04-29T01:39:28.964Z,17.03
2023-04-29T01:42:11.393Z,15.77
2023-04-29T01:44:39.589Z,15.63
2023-04-29T01:47:06.471Z,19.37
2023-04-29T01:49:36.236Z,16.90
2023-04-29T01:52:03.362Z,16.30
2023-04-29T01:54:29.795Z,16.27
2023-04-29T01:56:57.329Z,15.77
2023-04-29T01:59:23.775Z,14.93
2023-04-29T02:01:50.434Z,14.80
2023-04-29T02:04:17.037Z,15.27
2023-04-29T02:06:43.447Z,15.17
2023-04-29T02:09:09.972Z,15.40
2023-04-29T02:11:36.498Z,13.73
2023-04-29T02:14:02.867Z,12.43
2023-04-29T02:16:30.030Z,14.67
2023-04-29T02:18:56.438Z,15.10
2023-04-29T02:21:23.188Z,15.57
2023-04-29T02:23:50.319Z,15.97
2023-04-29T02:26:16.740Z,14.60
2023-04-29T02:28:43.117Z,14.67
2023-04-29T02:31:09.850Z,15.67
2023-04-29T02:33:36.259Z,16.63
2023-04-29T02:36:02.797Z,15.57
2023-04-29T02:38:29.322Z,14.43
2023-04-29T02:40:55.792Z,18.77
2023-04-29T02:43:22.502Z,15.47
2023-04-29T02:45:49.273Z,16.43
2023-04-29T02:48:15.903Z,14.00
2023-04-29T02:50:42.981Z,14.20
2023-04-29T02:53:09.390Z,12.70
2023-04-29T02:55:36.078Z,12.47
2023-04-29T02:58:03.805Z,13.03
2023-04-29T03:00:30.283Z,13.07
2023-04-29T03:02:57.514Z,14.83
2023-04-29T03:05:24.296Z,13.67
2023-04-29T03:07:50.708Z,13.93
2023-04-29T03:10:18.176Z,12.90
2023-04-29T03:12:44.713Z,12.60
2023-04-29T03:15:11.369Z,13.37
2023-04-29T03:17:37.870Z,16.07
2023-04-29T03:20:05.873Z,15.63
2023-04-29T03:22:32.260Z,15.70
2023-04-29T03:24:58.725Z,13.90
2023-04-29T03:27:25.117Z,14.23
2023-04-29T03:29:51.654Z,14.07
2023-04-29T03:32:18.281Z,15.23
2023-04-29T03:34:45.012Z,12.90
2023-04-29T03:37:11.705Z,13.30
2023-04-29T03:39:38.448Z,11.53
2023-04-29T03:42:05.006Z,13.13
2023-04-29T03:44:31.994Z,12.17
2023-04-29T03:46:58.455Z,11.87
2023-04-29T03:49:25.800Z,12.47
2023-04-29T03:51:52.654Z,13.93
2023-04-29T03:54:19.347Z,13.53
2023-04-29T03:56:45.863Z,12.90
2023-04-29T03:59:12.264Z,14.97
2023-04-29T04:01:38.698Z,12.47
2023-04-29T04:04:05.423Z,13.50
2023-04-29T04:06:32.246Z,12.43
2023-04-29T04:08:58.644Z,13.30
2023-04-29T04:11:25.240Z,11.83
2023-04-29T04:13:52.099Z,12.33
2023-04-29T04:16:18.615Z,13.10
2023-04-29T04:18:45.278Z,13.70
2023-04-29T04:21:12.873Z,13.43
2023-04-29T04:23:42.633Z,12.40
2023-04-29T04:26:09.589Z,13.20
2023-04-29T04:28:35.986Z,14.43
2023-04-29T04:31:02.824Z,14.20
2023-04-29T04:33:29.266Z,14.03
2023-04-29T04:35:55.664Z,13.23
2023-04-29T04:38:25.344Z,14.00
2023-04-29T04:40:51.938Z,14.77
2023-04-29T04:43:18.900Z,14.00
2023-04-29T04:45:45.440Z,14.40
2023-04-29T04:48:11.946Z,20.40
2023-04-29T04:50:38.344Z,15.40
2023-04-29T04:53:04.721Z,14.97
2023-04-29T04:55:32.133Z,15.87
2023-04-29T04:57:58.645Z,17.00
2023-04-29T05:00:25.148Z,15.90
2023-04-29T05:02:52.020Z,15.20
2023-04-29T05:05:18.630Z,13.93
2023-04-29T05:07:45.604Z,17.40
2023-04-29T05:10:12.004Z,17.77
2023-04-29T05:12:38.802Z,15.27
2023-04-29T05:15:05.550Z,15.97
2023-04-29T05:17:32.128Z,17.03
2023-04-29T05:19:58.550Z,15.40
2023-04-29T05:22:24.997Z,15.27
2023-04-29T05:24:52.878Z,14.30
2023-04-29T05:27:19.619Z,14.00
2023-04-29T05:29:46.273Z,15.13
2023-04-29T05:32:13.883Z,14.17
2023-04-29T05:34:40.439Z,16.03
2023-04-29T05:37:07.161Z,14.23
2023-04-29T05:39:33.821Z,15.93
2023-04-29T05:42:02.233Z,14.87
2023-04-29T05:44:28.717Z,17.07
2023-04-29T05:46:55.429Z,15.73
2023-04-29T05:49:21.811Z,14.63
2023-04-29T05:51:48.452Z,16.23
2023-04-29T05:54:15.487Z,17.43
2023-04-29T05:56:42.453Z,17.67
2023-04-29T05:59:09.013Z,17.93
2023-04-29T06:01:35.532Z,17.10
2023-04-29T06:04:02.183Z,14.87
2023-04-29T06:06:29.804Z,15.77
2023-04-29T06:08:56.714Z,13.50
2023-04-29T06:11:23.702Z,14.77
2023-04-29T06:13:50.112Z,16.07
2023-04-29T06:16:17.376Z,15.13
2023-04-29T06:18:43.815Z,15.57
2023-04-29T06:21:10.547Z,16.10
2023-04-29T06:23:36.952Z,15.57
2023-04-29T06:26:03.342Z,15.33
2023-04-29T06:28:30.326Z,15.07
2023-04-29T06:30:56.925Z,14.13
2023-04-29T06:33:23.799Z,15.57
2023-04-29T06:35:50.234Z,14.43
2023-04-29T06:38:16.921Z,14.43
2023-04-29T06:40:43.452Z,13.87
2023-04-29T06:43:10.097Z,13.20
2023-04-29T06:45:36.468Z,11.60
2023-04-29T06:48:03.600Z,14.50
2023-04-29T06:50:30.033Z,12.50
2023-04-29T06:52:56.544Z,11.63
2023-04-29T06:55:23.122Z,10.90
2023-04-29T06:57:49.512Z,10.03
2023-04-29T07:00:16.440Z,11.40
2023-04-29T07:02:43.280Z,9.17
2023-04-29T07:05:11.020Z,11.00
2023-04-29T07:07:37.706Z,10.17
2023-04-29T07:10:04.372Z,9.20
2023-04-29T07:12:30.925Z,8.60
2023-04-29T07:14:58.096Z,8.83
2023-04-29T07:17:24.564Z,8.07
2023-04-29T07:19:51.635Z,8.07
2023-04-29T07:22:18.228Z,7.93
2023-04-29T07:24:44.658Z,8.13
2023-04-29T07:27:11.053Z,7.50
2023-04-29T07:29:38.536Z,7.13
2023-04-29T07:32:04.967Z,6.60
2023-04-29T07:34:31.709Z,6.70
2023-04-29T07:36:58.188Z,6.60
2023-04-29T07:39:24.865Z,6.10
2023-04-29T07:41:52.020Z,5.50
2023-04-29T07:44:18.406Z,4.70
2023-04-29T07:46:44.937Z,3.75
2023-04-29T07:49:11.589Z,4.25
2023-04-29T07:51:41.675Z,4.10
2023-04-29T07:54:08.247Z,3.63
2023-04-29T07:56:34.609Z,4.10
2023-04-29T07:59:03.836Z,3.63
2023-04-29T08:01:30.285Z,3.80
2023-04-29T08:03:56.903Z,3.22
2023-04-29T08:06:23.751Z,3.13
2023-04-29T08:08:50.255Z,3.10
2023-04-29T08:11:19.779Z,3.10
2023-04-29T08:13:46.889Z,3.70
2023-04-29T08:16:14.036Z,3.33
2023-04-29T08:18:40.594Z,3.00
2023-04-29T08:21:07.418Z,3.50
2023-04-29T08:23:34.151Z,3.70
2023-04-29T08:26:01.043Z,3.60
2023-04-29T08:28:27.701Z,3.40
2023-04-29T08:30:54.060Z,3.90
2023-04-29T08:33:20.937Z,3.40
2023-04-29T08:35:47.351Z,3.00
2023-04-29T08:38:13.813Z,3.37
2023-04-29T08:40:48.296Z,3.00
2023-04-29T08:43:17.984Z,3.30
2023-04-29T08:45:45.274Z,3.53
2023-04-29T08:48:12.508Z,3.50
2023-04-29T08:50:41.351Z,3.40
2023-04-29T08:53:09.322Z,3.83
2023-04-29T08:55:37.152Z,3.80
2023-04-29T08:58:03.705Z,3.57
2023-04-29T09:00:32.512Z,3.37
2023-04-29T09:03:01.304Z,3.20
2023-04-29T09:05:28.411Z,2.90
2023-04-29T09:07:59.658Z,3.03
2023-04-29T09:10:26.631Z,3.25
2023-04-29T09:12:56.408Z,2.70
2023-04-29T09:15:22.957Z,2.83
2023-04-29T09:17:49.655Z,3.00
2023-04-29T09:20:26.516Z,3.23
2023-04-29T09:22:57.334Z,3.57
2023-04-29T09:25:23.880Z,3.87
2023-04-29T09:27:50.631Z,3.10
2023-04-29T09:30:17.544Z,3.30
2023-04-29T09:32:47.727Z,3.03
2023-04-29T09:35:25.673Z,2.53
2023-04-29T09:38:08.691Z,2.40
2023-04-29T09:40:40.745Z,2.50
2023-04-29T09:43:21.539Z,3.05
2023-04-29T09:45:48.663Z,2.27
2023-04-29T09:48:15.821Z,2.13
2023-04-29T09:50:44.158Z,2.47
2023-04-29T09:53:12.060Z,2.35
2023-04-29T09:55:59.365Z,2.33
2023-04-29T09:58:38.118Z,2.70
2023-04-29T10:01:05.559Z,2.33
2023-04-29T10:03:38.886Z,3.05
2023-04-29T10:06:06.777Z,2.50
2023-04-29T10:08:34.907Z,2.55
2023-04-29T10:11:03.367Z,2.73
2023-04-29T10:13:31.053Z,2.70
2023-04-29T10:16:06.859Z,2.60
2023-04-29T10:18:41.328Z,3.00
2023-04-29T10:21:11.397Z,2.55
2023-04-29T10:23:38.036Z,2.63
2023-04-29T10:26:07.141Z,2.70
2023-04-29T10:28:33.675Z,3.67
2023-04-29T10:31:05.423Z,3.72
2023-04-29T10:33:35.256Z,3.17
2023-04-29T10:36:02.778Z,3.15
2023-04-29T10:38:42.378Z,3.10
2023-04-29T10:41:15.012Z,3.30
2023-04-29T10:43:41.489Z,3.77
2023-04-29T10:46:18.004Z,4.40
2023-04-29T10:48:45.444Z,4.40
2023-04-29T10:51:12.264Z,4.37
2023-04-29T10:54:06.769Z,4.13
2023-04-29T10:56:44.995Z,3.87
2023-04-29T10:59:13.510Z,3.60
2023-04-29T11:01:51.236Z,3.17
2023-04-29T11:04:20.062Z,3.90
2023-04-29T11:07:01.129Z,3.90
2023-04-29T11:09:28.939Z,5.10
2023-04-29T11:12:05.226Z,5.50
2023-04-29T11:14:43.125Z,5.20
2023-04-29T11:17:15.203Z,4.70
2023-04-29T11:19:42.640Z,4.90
2023-04-29T11:22:13.602Z,4.30
2023-04-29T11:24:57.956Z,4.63
2023-04-29T11:27:26.587Z,4.30
2023-04-29T11:29:58.160Z,3.88
2023-04-29T11:32:26.154Z,3.90
2023-04-29T11:34:53.488Z,3.90
2023-04-29T11:37:24.125Z,3.97
2023-04-29T11:39:51.332Z,3.63
2023-04-29T11:42:22.044Z,3.90
2023-04-29T11:44:52.778Z,3.60
2023-04-29T11:47:19.622Z,3.75
2023-04-29T11:49:46.029Z,3.50
2023-04-29T11:52:12.691Z,3.30
2023-04-29T11:54:41.099Z,3.28
2023-04-29T11:57:10.251Z,3.42
2023-04-29T11:59:36.671Z,3.40
2023-04-29T12:02:03.140Z,3.47
2023-04-29T12:04:29.686Z,3.92
2023-04-29T12:06:58.479Z,3.58
2023-04-29T12:09:24.941Z,3.58
2023-04-29T12:11:51.693Z,3.47
2023-04-29T16:33:33.407Z,2.07
2023-04-29T16:35:59.929Z,2.40
2023-04-29T16:38:26.392Z,2.50
2023-04-29T16:40:52.954Z,2.30
2023-04-29T16:43:19.746Z,2.77
2023-04-29T16:45:46.148Z,2.20
2023-04-29T16:48:12.614Z,2.50
2023-04-29T16:50:39.049Z,2.73
2023-04-29T16:53:05.663Z,2.63
2023-04-29T16:55:32.242Z,2.50
2023-04-29T16:57:58.662Z,2.80
2023-04-29T17:00:25.259Z,2.53
2023-04-29T17:02:51.808Z,3.10
2023-04-29T17:05:21.625Z,2.50
2023-04-29T17:07:48.825Z,2.63
2023-04-29T17:10:15.325Z,3.00
2023-04-29T17:12:41.748Z,2.67
2023-04-29T17:15:08.611Z,2.50
2023-04-29T17:17:35.095Z,2.70
2023-04-29T17:20:01.628Z,2.53
2023-04-29T17:22:28.036Z,3.17
2023-04-29T17:24:54.511Z,3.40
2023-04-29T17:27:20.956Z,2.97
2023-04-29T17:29:47.332Z,3.00
2023-04-29T17:32:17.214Z,3.00
2023-04-29T17:34:44.040Z,3.20
2023-04-29T17:37:10.439Z,3.10
2023-04-29T17:39:36.828Z,2.90
2023-04-29T17:42:03.588Z,3.23
2023-04-29T17:44:29.973Z,3.03
2023-04-29T17:46:56.340Z,3.03
2023-04-29T17:49:22.713Z,3.20
2023-04-29T17:51:49.127Z,3.20
2023-04-29T17:54:15.607Z,3.50
2023-04-29T17:56:42.360Z,3.43
2023-04-29T17:59:08.807Z,3.03
2023-04-29T18:01:35.757Z,2.90
2023-04-29T18:04:02.296Z,3.23
2023-04-29T18:06:30.239Z,2.90
2023-04-29T18:08:56.726Z,3.00
2023-04-29T18:11:23.132Z,3.23
2023-04-29T18:13:53.111Z,2.90
2023-04-29T18:16:19.552Z,2.90
2023-04-29T18:18:46.224Z,3.60
2023-04-29T18:21:12.601Z,3.30
2023-04-29T18:23:40.289Z,3.30
2023-04-29T18:26:06.748Z,3.10
2023-04-29T18:28:33.938Z,4.00
2023-04-29T18:31:00.346Z,3.03
2023-04-29T18:33:26.863Z,3.70
2023-04-29T18:35:54.365Z,3.20
2023-04-29T18:38:21.079Z,3.43
2023-04-29T18:40:48.310Z,3.47
2023-04-29T18:43:17.944Z,3.30
2023-04-29T18:45:45.701Z,3.20
2023-04-29T18:48:12.987Z,2.83
2023-04-29T18:50:40.290Z,2.90
2023-04-29T18:53:07.622Z,2.50
2023-04-29T18:55:34.581Z,2.57
2023-04-29T18:58:02.792Z,2.50
2023-04-29T19:00:29.739Z,2.50
2023-04-29T19:02:56.645Z,2.10
2023-04-29T19:05:23.226Z,2.20
2023-04-29T19:07:49.742Z,1.90
2023-04-29T19:10:16.169Z,1.93
2023-04-29T19:12:42.550Z,1.80
2023-04-29T19:15:09.382Z,2.00
2023-04-29T19:17:36.011Z,1.77
2023-04-29T19:20:02.437Z,1.80
2023-04-29T19:22:29.489Z,1.80
2023-04-29T19:24:56.143Z,1.80
2023-04-29T19:27:23.227Z,1.80
2023-04-29T19:29:49.708Z,2.00
2023-04-29T19:32:16.137Z,1.90
2023-04-29T19:34:42.559Z,1.80
2023-04-29T19:37:08.996Z,1.43
2023-04-29T19:39:35.408Z,1.60
2023-04-29T19:42:02.324Z,1.93
2023-04-29T19:44:28.744Z,1.60
2023-04-29T19:46:55.455Z,1.33
2023-04-29T19:49:22.847Z,1.70
2023-04-29T19:51:50.121Z,2.00
2023-04-29T19:54:16.900Z,1.53
2023-04-29T19:56:43.409Z,1.70
2023-04-29T19:59:12.067Z,1.90
2023-04-29T20:01:38.884Z,1.90
2023-04-29T20:04:05.794Z,1.80
2023-04-29T20:06:34.975Z,2.33
2023-04-29T20:09:01.685Z,2.30
2023-04-29T20:11:28.088Z,2.50
2023-04-29T20:13:54.466Z,2.80
2023-04-29T20:16:20.880Z,3.90
2023-04-29T20:18:47.839Z,5.00
2023-04-29T20:21:14.250Z,5.00
2023-04-29T20:23:40.624Z,5.20
2023-04-29T20:26:07.090Z,5.70
2023-04-29T20:28:33.483Z,5.50
2023-04-29T20:30:59.950Z,5.63
2023-04-29T20:33:26.464Z,5.10
2023-04-29T20:35:53.336Z,4.87
2023-04-29T20:38:19.772Z,5.37
2023-04-29T20:40:46.187Z,6.00
2023-04-29T20:43:12.737Z,6.40
2023-04-29T20:45:39.503Z,6.17
2023-04-29T20:48:06.482Z,6.60
2023-04-29T20:50:32.976Z,6.47
2023-04-29T20:52:59.422Z,6.17
2023-04-29T20:55:25.923Z,6.47
2023-04-29T20:57:52.352Z,6.40
2023-04-29T21:00:18.838Z,5.73
2023-04-29T21:02:46.382Z,6.00
2023-04-29T21:05:14.204Z,6.43
2023-04-29T21:07:40.791Z,6.77
2023-04-29T21:10:07.803Z,7.13
2023-04-29T21:12:34.758Z,7.10
2023-04-29T21:15:01.476Z,6.83
2023-04-29T21:17:28.911Z,6.70
2023-04-29T21:19:56.319Z,6.50
2023-04-29T21:22:23.004Z,7.33
2023-04-29T21:24:49.517Z,6.87
2023-04-29T21:27:17.432Z,6.57
2023-04-29T21:29:43.937Z,6.90
2023-04-29T21:32:12.663Z,7.90
2023-04-29T21:34:39.128Z,7.53
2023-04-29T21:37:05.936Z,7.00
2023-04-29T21:39:32.850Z,6.80
2023-04-29T21:42:03.302Z,7.23
2023-04-29T21:44:30.132Z,7.60
2023-04-29T21:46:57.707Z,7.93
2023-04-29T21:49:25.279Z,8.10
2023-04-29T21:51:52.056Z,7.90
2023-04-29T21:54:18.732Z,7.93
2023-04-29T21:56:46.408Z,7.77
2023-04-29T21:59:12.898Z,7.83
2023-04-29T22:01:46.095Z,8.03
2023-04-29T22:04:12.848Z,7.73
2023-04-29T22:06:39.701Z,8.40
2023-04-29T22:09:07.400Z,7.87
2023-04-29T22:11:34.072Z,7.57
2023-04-29T22:14:00.965Z,7.60
2023-04-29T22:16:27.982Z,7.67
2023-04-29T22:18:54.813Z,7.37
2023-04-29T22:21:21.526Z,7.13
2023-04-29T22:23:49.384Z,7.70
2023-04-29T22:26:15.883Z,7.93
2023-04-29T22:28:42.564Z,8.10
2023-04-29T22:31:09.159Z,8.30
2023-04-29T22:33:36.471Z,7.50
2023-04-29T22:36:04.235Z,7.20
2023-04-29T22:38:31.360Z,7.47
2023-04-29T22:40:59.148Z,7.73
2023-04-29T22:43:25.903Z,7.63
2023-04-29T22:45:53.552Z,7.60
2023-04-29T22:48:21.018Z,7.47
2023-04-29T22:50:59.667Z,7.83
2023-04-29T22:53:26.652Z,7.63
2023-04-29T22:55:56.077Z,6.40
2023-04-29T22:58:26.704Z,7.07
2023-04-29T23:00:58.581Z,8.17
2023-04-29T23:03:26.212Z,8.30
2023-04-29T23:05:58.020Z,7.83
2023-04-29T23:08:24.620Z,7.70
2023-04-29T23:10:51.618Z,7.10
2023-04-29T23:13:18.470Z,7.50
2023-04-29T23:15:45.762Z,8.43
2023-04-29T23:18:16.751Z,5.97
2023-04-29T23:20:46.700Z,6.87
2023-04-29T23:23:14.022Z,7.10
2023-04-29T23:25:41.692Z,7.53
2023-04-29T23:28:08.837Z,7.67
2023-04-29T23:30:35.281Z,7.57
2023-04-29T23:33:02.850Z,8.00
2023-04-29T23:35:29.427Z,7.70
2023-04-29T23:37:56.285Z,7.63
2023-04-29T23:40:23.459Z,7.10
2023-04-29T23:42:50.551Z,6.97
2023-04-29T23:45:18.675Z,7.70
2023-04-29T23:47:45.199Z,7.87
2023-04-29T23:50:11.898Z,7.57
2023-04-29T23:52:38.626Z,7.33
2023-04-29T23:55:05.853Z,7.63
2023-04-29T23:57:32.497Z,8.30
2023-04-29T23:59:59.694Z,7.80
